sensor_id;sensor_type;location;lat;lon;timestamp;P1;durP1;ratioP1;P2;durP2;ratioP2
3022;SDS011;1521;53.584;9.938;2023-04-15T00:00:40;7.53;;;5.80;;
3022;SDS011;1521;53.584;9.938;2023-04-15T00:03:06;7.17;;;5.40;;
3022;SDS011;1521;53.584;9.938;2023-04-15T00:05:32;7.67;;;5.00;;
3022;SDS011;1521;53.584;9.938;2023-04-15T00:07:58;6.57;;;5.33;;
3022;SDS011;1521;53.584;9.938;2023-04-15T00:10:24;11.30;;;4.90;;
3022;SDS011;1521;53.584;9.938;2023-04-15T00:12:50;7.33;;;5.60;;
3022;SDS011;1521;53.584;9.938;2023-04-15T00:15:17;7.90;;;5.70;;
3022;SDS011;1521;53.584;9.938;2023-04-15T00:17:43;12.90;;;6.07;;
3022;SDS011;1521;53.584;9.938;2023-04-15T00:20:08;7.77;;;5.50;;
3022;SDS011;1521;53.584;9.938;2023-04-15T00:22:34;9.00;;;5.30;;
3022;SDS011;1521;53.584;9.938;2023-04-15T00:25:00;7.97;;;5.30;;
3022;SDS011;1521;53.584;9.938;2023-04-15T00:27:26;11.63;;;6.00;;
3022;SDS011;1521;53.584;9.938;2023-04-15T00:29:51;7.63;;;5.20;;
3022;SDS011;1521;53.584;9.938;2023-04-15T00:32:17;6.17;;;5.23;;
3022;SDS011;1521;53.584;9.938;2023-04-15T00:34:42;12.33;;;6.30;;
3022;SDS011;1521;53.584;9.938;2023-04-15T00:37:08;8.00;;;5.57;;
3022;SDS011;1521;53.584;9.938;2023-04-15T00:39:34;11.83;;;5.83;;
3022;SDS011;1521;53.584;9.938;2023-04-15T00:42:00;7.43;;;5.73;;
3022;SDS011;1521;53.584;9.938;2023-04-15T00:44:28;9.70;;;5.73;;
3022;SDS011;1521;53.584;9.938;2023-04-15T00:46:53;9.23;;;5.67;;
3022;SDS011;1521;53.584;9.938;2023-04-15T00:49:19;9.87;;;5.70;;
3022;SDS011;1521;53.584;9.938;2023-04-15T00:51:45;8.60;;;5.87;;
3022;SDS011;1521;53.584;9.938;2023-04-15T00:54:11;7.70;;;6.13;;
3022;SDS011;1521;53.584;9.938;2023-04-15T00:56:37;9.57;;;6.30;;
3022;SDS011;1521;53.584;9.938;2023-04-15T00:59:06;8.73;;;6.47;;
3022;SDS011;1521;53.584;9.938;2023-04-15T01:01:36;9.93;;;6.40;;
3022;SDS011;1521;53.584;9.938;2023-04-15T01:04:02;10.40;;;7.17;;
3022;SDS011;1521;53.584;9.938;2023-04-15T01:06:29;9.17;;;7.30;;
3022;SDS011;1521;53.584;9.938;2023-04-15T01:08:56;10.60;;;6.97;;
3022;SDS011;1521;53.584;9.938;2023-04-15T01:11:22;11.00;;;7.60;;
3022;SDS011;1521;53.584;9.938;2023-04-15T01:13:49;11.07;;;7.13;;
3022;SDS011;1521;53.584;9.938;2023-04-15T01:16:16;9.00;;;7.30;;
3022;SDS011;1521;53.584;9.938;2023-04-15T01:18:42;10.23;;;7.50;;
3022;SDS011;1521;53.584;9.938;2023-04-15T01:21:08;13.70;;;7.83;;
3022;SDS011;1521;53.584;9.938;2023-04-15T01:23:35;12.43;;;8.17;;
3022;SDS011;1521;53.584;9.938;2023-04-15T01:26:02;10.80;;;7.50;;
3022;SDS011;1521;53.584;9.938;2023-04-15T01:28:29;9.87;;;7.40;;
3022;SDS011;1521;53.584;9.938;2023-04-15T01:31:05;13.60;;;7.83;;
3022;SDS011;1521;53.584;9.938;2023-04-15T01:33:31;12.43;;;8.30;;
3022;SDS011;1521;53.584;9.938;2023-04-15T01:35:57;13.20;;;7.93;;
3022;SDS011;1521;53.584;9.938;2023-04-15T01:38:22;11.30;;;7.93;;
3022;SDS011;1521;53.584;9.938;2023-04-15T01:40:49;10.20;;;7.30;;
3022;SDS011;1521;53.584;9.938;2023-04-15T01:43:14;13.83;;;9.20;;
3022;SDS011;1521;53.584;9.938;2023-04-15T01:45:40;11.70;;;7.77;;
3022;SDS011;1521;53.584;9.938;2023-04-15T01:48:06;10.93;;;7.60;;
3022;SDS011;1521;53.584;9.938;2023-04-15T01:50:32;13.97;;;9.60;;
3022;SDS011;1521;53.584;9.938;2023-04-15T01:52:58;12.13;;;8.67;;
3022;SDS011;1521;53.584;9.938;2023-04-15T01:55:23;14.20;;;8.37;;
3022;SDS011;1521;53.584;9.938;2023-04-15T01:57:49;11.70;;;8.60;;
3022;SDS011;1521;53.584;9.938;2023-04-15T02:00:14;11.00;;;8.33;;
3022;SDS011;1521;53.584;9.938;2023-04-15T02:02:41;15.37;;;9.13;;
3022;SDS011;1521;53.584;9.938;2023-04-15T02:05:07;15.13;;;10.40;;
3022;SDS011;1521;53.584;9.938;2023-04-15T02:07:33;15.87;;;9.87;;
3022;SDS011;1521;53.584;9.938;2023-04-15T02:09:59;10.90;;;8.40;;
3022;SDS011;1521;53.584;9.938;2023-04-15T02:12:25;13.10;;;8.53;;
3022;SDS011;1521;53.584;9.938;2023-04-15T02:14:51;13.00;;;8.80;;
3022;SDS011;1521;53.584;9.938;2023-04-15T02:17:17;12.90;;;8.17;;
3022;SDS011;1521;53.584;9.938;2023-04-15T02:19:42;13.80;;;8.47;;
3022;SDS011;1521;53.584;9.938;2023-04-15T02:22:08;14.10;;;9.60;;
3022;SDS011;1521;53.584;9.938;2023-04-15T02:24:35;16.20;;;9.83;;
3022;SDS011;1521;53.584;9.938;2023-04-15T02:27:00;14.27;;;9.20;;
3022;SDS011;1521;53.584;9.938;2023-04-15T02:29:27;15.87;;;9.20;;
3022;SDS011;1521;53.584;9.938;2023-04-15T02:31:53;14.00;;;8.80;;
3022;SDS011;1521;53.584;9.938;2023-04-15T02:34:18;15.33;;;9.80;;
3022;SDS011;1521;53.584;9.938;2023-04-15T02:36:44;14.77;;;9.60;;
3022;SDS011;1521;53.584;9.938;2023-04-15T02:39:11;13.47;;;9.23;;
3022;SDS011;1521;53.584;9.938;2023-04-15T02:41:38;14.97;;;9.37;;
3022;SDS011;1521;53.584;9.938;2023-04-15T02:44:04;15.20;;;9.50;;
3022;SDS011;1521;53.584;9.938;2023-04-15T02:46:31;13.83;;;9.20;;
3022;SDS011;1521;53.584;9.938;2023-04-15T02:48:56;15.03;;;9.67;;
3022;SDS011;1521;53.584;9.938;2023-04-15T02:51:23;17.10;;;10.57;;
3022;SDS011;1521;53.584;9.938;2023-04-15T02:53:49;19.47;;;10.60;;
3022;SDS011;1521;53.584;9.938;2023-04-15T02:56:15;16.87;;;10.30;;
3022;SDS011;1521;53.584;9.938;2023-04-15T02:58:42;16.00;;;9.87;;
3022;SDS011;1521;53.584;9.938;2023-04-15T03:01:09;18.83;;;10.77;;
3022;SDS011;1521;53.584;9.938;2023-04-15T03:03:35;16.97;;;10.50;;
3022;SDS011;1521;53.584;9.938;2023-04-15T03:06:01;15.43;;;9.87;;
3022;SDS011;1521;53.584;9.938;2023-04-15T03:08:26;16.40;;;10.30;;
3022;SDS011;1521;53.584;9.938;2023-04-15T03:10:52;14.40;;;9.20;;
3022;SDS011;1521;53.584;9.938;2023-04-15T03:13:18;16.83;;;10.30;;
3022;SDS011;1521;53.584;9.938;2023-04-15T03:15:45;17.17;;;10.67;;
3022;SDS011;1521;53.584;9.938;2023-04-15T03:18:11;16.83;;;10.40;;
3022;SDS011;1521;53.584;9.938;2023-04-15T03:20:37;17.10;;;10.10;;
3022;SDS011;1521;53.584;9.938;2023-04-15T03:23:02;20.70;;;11.77;;
3022;SDS011;1521;53.584;9.938;2023-04-15T03:25:28;19.67;;;11.83;;
3022;SDS011;1521;53.584;9.938;2023-04-15T03:27:53;18.70;;;11.37;;
3022;SDS011;1521;53.584;9.938;2023-04-15T03:30:19;15.97;;;10.30;;
3022;SDS011;1521;53.584;9.938;2023-04-15T03:32:45;20.00;;;11.50;;
3022;SDS011;1521;53.584;9.938;2023-04-15T03:35:11;20.03;;;11.90;;
3022;SDS011;1521;53.584;9.938;2023-04-15T03:37:36;27.00;;;12.50;;
3022;SDS011;1521;53.584;9.938;2023-04-15T03:40:02;20.50;;;11.87;;
3022;SDS011;1521;53.584;9.938;2023-04-15T03:42:28;22.13;;;13.07;;
3022;SDS011;1521;53.584;9.938;2023-04-15T03:44:53;24.20;;;13.13;;
3022;SDS011;1521;53.584;9.938;2023-04-15T03:47:19;24.43;;;12.97;;
3022;SDS011;1521;53.584;9.938;2023-04-15T03:49:44;25.20;;;13.60;;
3022;SDS011;1521;53.584;9.938;2023-04-15T03:52:10;22.73;;;12.70;;
3022;SDS011;1521;53.584;9.938;2023-04-15T03:54:36;23.50;;;13.23;;
3022;SDS011;1521;53.584;9.938;2023-04-15T03:57:01;27.53;;;13.87;;
3022;SDS011;1521;53.584;9.938;2023-04-15T03:59:27;24.00;;;13.37;;
3022;SDS011;1521;53.584;9.938;2023-04-15T04:01:52;24.60;;;14.03;;
3022;SDS011;1521;53.584;9.938;2023-04-15T04:04:18;27.00;;;14.57;;
3022;SDS011;1521;53.584;9.938;2023-04-15T04:06:43;27.57;;;15.20;;
3022;SDS011;1521;53.584;9.938;2023-04-15T04:09:09;31.30;;;15.30;;
3022;SDS011;1521;53.584;9.938;2023-04-15T04:11:35;23.53;;;13.73;;
3022;SDS011;1521;53.584;9.938;2023-04-15T04:14:01;29.13;;;15.57;;
3022;SDS011;1521;53.584;9.938;2023-04-15T04:16:27;29.63;;;16.47;;
3022;SDS011;1521;53.584;9.938;2023-04-15T04:18:52;31.77;;;15.67;;
3022;SDS011;1521;53.584;9.938;2023-04-15T04:21:18;33.87;;;16.60;;
3022;SDS011;1521;53.584;9.938;2023-04-15T04:23:45;32.17;;;15.47;;
3022;SDS011;1521;53.584;9.938;2023-04-15T04:26:10;33.50;;;17.10;;
3022;SDS011;1521;53.584;9.938;2023-04-15T04:28:36;31.80;;;16.53;;
3022;SDS011;1521;53.584;9.938;2023-04-15T04:31:03;34.30;;;18.10;;
3022;SDS011;1521;53.584;9.938;2023-04-15T04:33:29;33.53;;;17.93;;
3022;SDS011;1521;53.584;9.938;2023-04-15T04:35:55;38.77;;;17.03;;
3022;SDS011;1521;53.584;9.938;2023-04-15T04:38:20;34.33;;;18.27;;
3022;SDS011;1521;53.584;9.938;2023-04-15T04:40:46;33.37;;;18.00;;
3022;SDS011;1521;53.584;9.938;2023-04-15T04:43:11;35.10;;;17.87;;
3022;SDS011;1521;53.584;9.938;2023-04-15T04:45:37;31.20;;;16.60;;
3022;SDS011;1521;53.584;9.938;2023-04-15T04:48:02;41.17;;;19.40;;
3022;SDS011;1521;53.584;9.938;2023-04-15T04:50:30;39.27;;;20.57;;
3022;SDS011;1521;53.584;9.938;2023-04-15T04:52:56;38.37;;;20.53;;
3022;SDS011;1521;53.584;9.938;2023-04-15T04:55:22;35.23;;;18.47;;
3022;SDS011;1521;53.584;9.938;2023-04-15T04:57:47;42.57;;;21.20;;
3022;SDS011;1521;53.584;9.938;2023-04-15T05:00:13;44.60;;;21.73;;
3022;SDS011;1521;53.584;9.938;2023-04-15T05:02:39;48.07;;;20.97;;
3022;SDS011;1521;53.584;9.938;2023-04-15T05:05:07;43.93;;;21.63;;
3022;SDS011;1521;53.584;9.938;2023-04-15T05:07:34;46.33;;;20.73;;
3022;SDS011;1521;53.584;9.938;2023-04-15T05:09:59;41.97;;;21.57;;
3022;SDS011;1521;53.584;9.938;2023-04-15T05:12:25;53.17;;;23.30;;
3022;SDS011;1521;53.584;9.938;2023-04-15T05:14:51;37.33;;;20.40;;
3022;SDS011;1521;53.584;9.938;2023-04-15T05:17:16;49.03;;;23.30;;
3022;SDS011;1521;53.584;9.938;2023-04-15T05:19:42;48.23;;;23.63;;
3022;SDS011;1521;53.584;9.938;2023-04-15T05:22:07;45.70;;;21.57;;
3022;SDS011;1521;53.584;9.938;2023-04-15T05:24:33;44.30;;;23.67;;
3022;SDS011;1521;53.584;9.938;2023-04-15T05:26:59;47.00;;;23.03;;
3022;SDS011;1521;53.584;9.938;2023-04-15T05:29:25;53.13;;;25.30;;
3022;SDS011;1521;53.584;9.938;2023-04-15T05:31:51;58.53;;;25.33;;
3022;SDS011;1521;53.584;9.938;2023-04-15T05:34:17;52.93;;;26.10;;
3022;SDS011;1521;53.584;9.938;2023-04-15T05:36:42;57.43;;;25.60;;
3022;SDS011;1521;53.584;9.938;2023-04-15T05:39:08;54.07;;;26.20;;
3022;SDS011;1521;53.584;9.938;2023-04-15T05:41:34;54.23;;;26.30;;
3022;SDS011;1521;53.584;9.938;2023-04-15T05:43:59;63.77;;;27.07;;
3022;SDS011;1521;53.584;9.938;2023-04-15T05:46:25;54.30;;;26.90;;
3022;SDS011;1521;53.584;9.938;2023-04-15T05:48:51;50.30;;;25.97;;
3022;SDS011;1521;53.584;9.938;2023-04-15T05:51:17;53.80;;;25.63;;
3022;SDS011;1521;53.584;9.938;2023-04-15T05:53:42;47.43;;;25.07;;
3022;SDS011;1521;53.584;9.938;2023-04-15T05:56:09;55.10;;;27.40;;
3022;SDS011;1521;53.584;9.938;2023-04-15T05:58:35;53.57;;;26.33;;
3022;SDS011;1521;53.584;9.938;2023-04-15T06:01:01;61.80;;;28.03;;
3022;SDS011;1521;53.584;9.938;2023-04-15T06:03:27;55.70;;;28.40;;
3022;SDS011;1521;53.584;9.938;2023-04-15T06:05:53;60.17;;;27.60;;
3022;SDS011;1521;53.584;9.938;2023-04-15T06:08:18;50.93;;;27.90;;
3022;SDS011;1521;53.584;9.938;2023-04-15T06:10:44;51.83;;;27.20;;
3022;SDS011;1521;53.584;9.938;2023-04-15T06:13:10;57.13;;;26.90;;
3022;SDS011;1521;53.584;9.938;2023-04-15T06:15:35;50.33;;;27.27;;
3022;SDS011;1521;53.584;9.938;2023-04-15T06:18:01;49.00;;;26.40;;
3022;SDS011;1521;53.584;9.938;2023-04-15T06:20:27;56.53;;;29.60;;
3022;SDS011;1521;53.584;9.938;2023-04-15T06:22:52;59.77;;;28.57;;
3022;SDS011;1521;53.584;9.938;2023-04-15T06:25:18;55.33;;;28.50;;
3022;SDS011;1521;53.584;9.938;2023-04-15T06:27:43;64.93;;;32.07;;
3022;SDS011;1521;53.584;9.938;2023-04-15T06:30:09;51.57;;;27.57;;
3022;SDS011;1521;53.584;9.938;2023-04-15T06:32:36;63.97;;;32.10;;
3022;SDS011;1521;53.584;9.938;2023-04-15T06:35:01;61.37;;;30.90;;
3022;SDS011;1521;53.584;9.938;2023-04-15T06:37:27;61.10;;;30.63;;
3022;SDS011;1521;53.584;9.938;2023-04-15T06:39:53;59.83;;;31.10;;
3022;SDS011;1521;53.584;9.938;2023-04-15T06:42:19;65.00;;;31.07;;
3022;SDS011;1521;53.584;9.938;2023-04-15T06:44:45;65.37;;;31.77;;
3022;SDS011;1521;53.584;9.938;2023-04-15T06:47:11;66.67;;;33.60;;
3022;SDS011;1521;53.584;9.938;2023-04-15T06:49:38;77.53;;;35.00;;
3022;SDS011;1521;53.584;9.938;2023-04-15T06:52:04;70.83;;;33.63;;
3022;SDS011;1521;53.584;9.938;2023-04-15T06:54:30;65.83;;;33.00;;
3022;SDS011;1521;53.584;9.938;2023-04-15T06:56:56;67.50;;;34.20;;
3022;SDS011;1521;53.584;9.938;2023-04-15T06:59:21;71.73;;;34.27;;
3022;SDS011;1521;53.584;9.938;2023-04-15T07:01:47;73.83;;;35.43;;
3022;SDS011;1521;53.584;9.938;2023-04-15T07:04:12;73.07;;;34.80;;
3022;SDS011;1521;53.584;9.938;2023-04-15T07:06:38;69.53;;;33.83;;
3022;SDS011;1521;53.584;9.938;2023-04-15T07:09:04;80.70;;;37.43;;
3022;SDS011;1521;53.584;9.938;2023-04-15T07:11:29;77.47;;;37.40;;
3022;SDS011;1521;53.584;9.938;2023-04-15T07:13:56;68.40;;;37.63;;
3022;SDS011;1521;53.584;9.938;2023-04-15T07:16:22;72.97;;;37.80;;
3022;SDS011;1521;53.584;9.938;2023-04-15T07:18:48;71.80;;;37.00;;
3022;SDS011;1521;53.584;9.938;2023-04-15T07:21:13;72.07;;;36.53;;
3022;SDS011;1521;53.584;9.938;2023-04-15T07:23:39;71.63;;;38.17;;
3022;SDS011;1521;53.584;9.938;2023-04-15T07:26:06;78.10;;;38.50;;
3022;SDS011;1521;53.584;9.938;2023-04-15T07:28:32;86.67;;;40.70;;
3022;SDS011;1521;53.584;9.938;2023-04-15T07:30:58;81.03;;;39.67;;
3022;SDS011;1521;53.584;9.938;2023-04-15T07:33:24;80.93;;;39.27;;
3022;SDS011;1521;53.584;9.938;2023-04-15T07:35:49;79.60;;;40.30;;
3022;SDS011;1521;53.584;9.938;2023-04-15T07:38:15;76.97;;;38.70;;
3022;SDS011;1521;53.584;9.938;2023-04-15T07:40:40;77.50;;;40.03;;
3022;SDS011;1521;53.584;9.938;2023-04-15T07:43:06;76.40;;;39.50;;
3022;SDS011;1521;53.584;9.938;2023-04-15T07:45:32;78.63;;;39.17;;
3022;SDS011;1521;53.584;9.938;2023-04-15T07:47:59;74.00;;;38.20;;
3022;SDS011;1521;53.584;9.938;2023-04-15T07:50:25;76.93;;;37.27;;
3022;SDS011;1521;53.584;9.938;2023-04-15T07:52:51;73.90;;;40.07;;
3022;SDS011;1521;53.584;9.938;2023-04-15T07:55:17;68.20;;;36.60;;
3022;SDS011;1521;53.584;9.938;2023-04-15T07:57:45;75.23;;;38.00;;
3022;SDS011;1521;53.584;9.938;2023-04-15T08:00:14;79.07;;;39.10;;
3022;SDS011;1521;53.584;9.938;2023-04-15T08:02:40;78.90;;;39.87;;
3022;SDS011;1521;53.584;9.938;2023-04-15T08:05:07;72.70;;;37.73;;
3022;SDS011;1521;53.584;9.938;2023-04-15T08:07:35;73.57;;;38.30;;
3022;SDS011;1521;53.584;9.938;2023-04-15T08:10:01;77.73;;;40.90;;
3022;SDS011;1521;53.584;9.938;2023-04-15T08:12:28;81.53;;;38.43;;
3022;SDS011;1521;53.584;9.938;2023-04-15T08:14:54;84.33;;;38.80;;
3022;SDS011;1521;53.584;9.938;2023-04-15T08:17:21;83.20;;;39.57;;
3022;SDS011;1521;53.584;9.938;2023-04-15T08:19:47;81.73;;;38.97;;
3022;SDS011;1521;53.584;9.938;2023-04-15T08:22:13;83.23;;;39.90;;
3022;SDS011;1521;53.584;9.938;2023-04-15T08:24:39;81.43;;;39.67;;
3022;SDS011;1521;53.584;9.938;2023-04-15T08:27:05;82.43;;;39.00;;
3022;SDS011;1521;53.584;9.938;2023-04-15T08:29:32;74.93;;;37.60;;
3022;SDS011;1521;53.584;9.938;2023-04-15T08:31:58;66.30;;;36.90;;
3022;SDS011;1521;53.584;9.938;2023-04-15T08:34:27;71.22;;;40.63;;
3022;SDS011;1521;53.584;9.938;2023-04-15T08:36:53;70.07;;;39.77;;
3022;SDS011;1521;53.584;9.938;2023-04-15T08:39:19;69.43;;;37.27;;
3022;SDS011;1521;53.584;9.938;2023-04-15T08:41:46;70.93;;;38.23;;
3022;SDS011;1521;53.584;9.938;2023-04-15T08:44:24;71.40;;;38.50;;
3022;SDS011;1521;53.584;9.938;2023-04-15T08:46:53;70.00;;;36.03;;
3022;SDS011;1521;53.584;9.938;2023-04-15T08:49:21;71.70;;;37.77;;
3022;SDS011;1521;53.584;9.938;2023-04-15T08:51:51;70.17;;;36.80;;
3022;SDS011;1521;53.584;9.938;2023-04-15T08:54:17;68.63;;;39.80;;
3022;SDS011;1521;53.584;9.938;2023-04-15T08:56:43;68.50;;;41.63;;
3022;SDS011;1521;53.584;9.938;2023-04-15T08:59:09;70.60;;;39.00;;
3022;SDS011;1521;53.584;9.938;2023-04-15T09:01:36;69.20;;;37.13;;
3022;SDS011;1521;53.584;9.938;2023-04-15T09:04:02;62.03;;;34.00;;
3022;SDS011;1521;53.584;9.938;2023-04-15T09:06:31;69.40;;;37.40;;
3022;SDS011;1521;53.584;9.938;2023-04-15T09:08:57;64.10;;;35.27;;
3022;SDS011;1521;53.584;9.938;2023-04-15T09:11:23;68.90;;;36.07;;
3022;SDS011;1521;53.584;9.938;2023-04-15T09:13:49;71.67;;;36.13;;
3022;SDS011;1521;53.584;9.938;2023-04-15T09:16:14;66.03;;;36.87;;
3022;SDS011;1521;53.584;9.938;2023-04-15T09:18:40;71.20;;;36.97;;
3022;SDS011;1521;53.584;9.938;2023-04-15T09:21:06;64.07;;;36.10;;
3022;SDS011;1521;53.584;9.938;2023-04-15T09:23:35;71.07;;;37.50;;
3022;SDS011;1521;53.584;9.938;2023-04-15T09:26:02;68.70;;;37.43;;
3022;SDS011;1521;53.584;9.938;2023-04-15T09:28:29;69.60;;;35.63;;
3022;SDS011;1521;53.584;9.938;2023-04-15T09:30:55;69.57;;;35.70;;
3022;SDS011;1521;53.584;9.938;2023-04-15T09:33:25;67.33;;;36.67;;
3022;SDS011;1521;53.584;9.938;2023-04-15T09:35:56;61.93;;;34.87;;
3022;SDS011;1521;53.584;9.938;2023-04-15T09:38:23;65.47;;;34.50;;
3022;SDS011;1521;53.584;9.938;2023-04-15T09:40:49;62.30;;;34.60;;
3022;SDS011;1521;53.584;9.938;2023-04-15T09:43:15;64.40;;;36.37;;
3022;SDS011;1521;53.584;9.938;2023-04-15T09:45:48;67.60;;;36.43;;
3022;SDS011;1521;53.584;9.938;2023-04-15T09:50:45;65.67;;;36.33;;
3022;SDS011;1521;53.584;9.938;2023-04-15T09:53:20;63.00;;;35.97;;
3022;SDS011;1521;53.584;9.938;2023-04-15T09:55:49;63.50;;;34.70;;
3022;SDS011;1521;53.584;9.938;2023-04-15T09:58:20;59.97;;;35.23;;
3022;SDS011;1521;53.584;9.938;2023-04-15T10:00:51;57.97;;;33.53;;
3022;SDS011;1521;53.584;9.938;2023-04-15T10:03:27;56.43;;;33.03;;
3022;SDS011;1521;53.584;9.938;2023-04-15T10:05:54;55.20;;;34.07;;
3022;SDS011;1521;53.584;9.938;2023-04-15T10:08:28;58.43;;;33.10;;
3022;SDS011;1521;53.584;9.938;2023-04-15T10:10:55;57.80;;;33.27;;
3022;SDS011;1521;53.584;9.938;2023-04-15T10:13:24;50.00;;;31.30;;
3022;SDS011;1521;53.584;9.938;2023-04-15T10:16:26;55.10;;;32.60;;
3022;SDS011;1521;53.584;9.938;2023-04-15T10:18:45;51.10;;;31.40;;
3022;SDS011;1521;53.584;9.938;2023-04-15T10:21:12;51.33;;;31.83;;
3022;SDS011;1521;53.584;9.938;2023-04-15T10:23:42;51.80;;;31.50;;
3022;SDS011;1521;53.584;9.938;2023-04-15T10:26:11;56.53;;;32.47;;
3022;SDS011;1521;53.584;9.938;2023-04-15T10:28:39;51.77;;;30.43;;
3022;SDS011;1521;53.584;9.938;2023-04-15T10:31:05;47.13;;;30.30;;
3022;SDS011;1521;53.584;9.938;2023-04-15T10:33:31;45.33;;;28.53;;
3022;SDS011;1521;53.584;9.938;2023-04-15T10:35:59;42.70;;;28.77;;
3022;SDS011;1521;53.584;9.938;2023-04-15T10:43:45;38.17;;;26.30;;
3022;SDS011;1521;53.584;9.938;2023-04-15T10:46:19;39.43;;;25.33;;
3022;SDS011;1521;53.584;9.938;2023-04-15T10:49:06;41.17;;;26.43;;
3022;SDS011;1521;53.584;9.938;2023-04-15T10:51:32;37.20;;;25.87;;
3022;SDS011;1521;53.584;9.938;2023-04-15T10:53:58;35.73;;;24.53;;
3022;SDS011;1521;53.584;9.938;2023-04-15T10:56:24;40.90;;;26.47;;
3022;SDS011;1521;53.584;9.938;2023-04-15T10:58:52;37.80;;;24.90;;
3022;SDS011;1521;53.584;9.938;2023-04-15T11:01:18;36.73;;;23.83;;
3022;SDS011;1521;53.584;9.938;2023-04-15T11:03:47;33.70;;;23.67;;
3022;SDS011;1521;53.584;9.938;2023-04-15T11:06:13;32.50;;;23.63;;
3022;SDS011;1521;53.584;9.938;2023-04-15T11:08:54;36.20;;;22.23;;
3022;SDS011;1521;53.584;9.938;2023-04-15T11:11:22;28.00;;;20.20;;
3022;SDS011;1521;53.584;9.938;2023-04-15T11:14:14;29.13;;;21.20;;
3022;SDS011;1521;53.584;9.938;2023-04-15T11:16:43;27.57;;;20.07;;
3022;SDS011;1521;53.584;9.938;2023-04-15T11:19:09;29.07;;;18.97;;
3022;SDS011;1521;53.584;9.938;2023-04-15T11:21:34;24.87;;;18.50;;
3022;SDS011;1521;53.584;9.938;2023-04-15T11:24:00;22.40;;;15.80;;
3022;SDS011;1521;53.584;9.938;2023-04-15T11:26:26;19.03;;;14.40;;
3022;SDS011;1521;53.584;9.938;2023-04-15T11:28:51;20.00;;;13.57;;
3022;SDS011;1521;53.584;9.938;2023-04-15T11:31:18;18.13;;;13.53;;
3022;SDS011;1521;53.584;9.938;2023-04-15T11:33:44;19.60;;;13.50;;
3022;SDS011;1521;53.584;9.938;2023-04-15T11:36:11;19.37;;;13.47;;
3022;SDS011;1521;53.584;9.938;2023-04-15T11:38:40;17.53;;;13.40;;
3022;SDS011;1521;53.584;9.938;2023-04-15T11:41:06;16.13;;;13.57;;
3022;SDS011;1521;53.584;9.938;2023-04-15T11:43:32;18.33;;;13.63;;
3022;SDS011;1521;53.584;9.938;2023-04-15T11:46:00;17.50;;;12.80;;
3022;SDS011;1521;53.584;9.938;2023-04-15T11:48:27;18.03;;;13.70;;
3022;SDS011;1521;53.584;9.938;2023-04-15T11:53:24;19.03;;;13.73;;
3022;SDS011;1521;53.584;9.938;2023-04-15T11:56:03;20.47;;;13.80;;
3022;SDS011;1521;53.584;9.938;2023-04-15T11:58:29;21.80;;;12.80;;
3022;SDS011;1521;53.584;9.938;2023-04-15T12:00:59;16.57;;;13.00;;
3022;SDS011;1521;53.584;9.938;2023-04-15T12:03:29;16.73;;;12.63;;
3022;SDS011;1521;53.584;9.938;2023-04-15T12:11:20;13.70;;;11.60;;
3022;SDS011;1521;53.584;9.938;2023-04-15T12:13:56;16.27;;;11.63;;
3022;SDS011;1521;53.584;9.938;2023-04-15T12:16:23;18.90;;;13.70;;
3022;SDS011;1521;53.584;9.938;2023-04-15T12:18:50;20.17;;;13.33;;
3022;SDS011;1521;53.584;9.938;2023-04-15T12:21:24;18.53;;;14.20;;
3022;SDS011;1521;53.584;9.938;2023-04-15T12:23:55;17.07;;;14.00;;
3022;SDS011;1521;53.584;9.938;2023-04-15T12:26:25;16.03;;;13.20;;
3022;SDS011;1521;53.584;9.938;2023-04-15T12:29:11;18.00;;;13.27;;
3022;SDS011;1521;53.584;9.938;2023-04-15T12:31:46;17.67;;;13.90;;
3022;SDS011;1521;53.584;9.938;2023-04-15T12:34:29;17.97;;;12.57;;
3022;SDS011;1521;53.584;9.938;2023-04-15T12:36:56;18.03;;;12.70;;
3022;SDS011;1521;53.584;9.938;2023-04-15T12:39:23;15.87;;;12.03;;
3022;SDS011;1521;53.584;9.938;2023-04-15T12:41:50;17.20;;;12.37;;
3022;SDS011;1521;53.584;9.938;2023-04-15T12:44:16;16.80;;;13.00;;
3022;SDS011;1521;53.584;9.938;2023-04-15T12:46:42;14.97;;;12.70;;
3022;SDS011;1521;53.584;9.938;2023-04-15T12:49:08;14.97;;;12.20;;
3022;SDS011;1521;53.584;9.938;2023-04-15T12:51:33;14.20;;;11.90;;
3022;SDS011;1521;53.584;9.938;2023-04-15T12:53:59;16.93;;;12.30;;
3022;SDS011;1521;53.584;9.938;2023-04-15T12:56:25;15.77;;;13.07;;
3022;SDS011;1521;53.584;9.938;2023-04-15T12:58:51;16.57;;;13.00;;
3022;SDS011;1521;53.584;9.938;2023-04-15T13:01:16;17.37;;;13.13;;
3022;SDS011;1521;53.584;9.938;2023-04-15T13:03:42;18.70;;;13.87;;
3022;SDS011;1521;53.584;9.938;2023-04-15T13:06:08;16.80;;;13.10;;
3022;SDS011;1521;53.584;9.938;2023-04-15T13:08:34;15.67;;;12.40;;
3022;SDS011;1521;53.584;9.938;2023-04-15T13:10:59;14.53;;;12.30;;
3022;SDS011;1521;53.584;9.938;2023-04-15T13:13:25;17.37;;;12.73;;
3022;SDS011;1521;53.584;9.938;2023-04-15T13:15:51;15.77;;;13.17;;
3022;SDS011;1521;53.584;9.938;2023-04-15T13:18:17;15.37;;;12.50;;
3022;SDS011;1521;53.584;9.938;2023-04-15T13:20:42;13.50;;;12.10;;
3022;SDS011;1521;53.584;9.938;2023-04-15T13:23:08;18.40;;;13.13;;
3022;SDS011;1521;53.584;9.938;2023-04-15T13:25:34;16.77;;;12.50;;
3022;SDS011;1521;53.584;9.938;2023-04-15T13:28:00;15.60;;;12.10;;
3022;SDS011;1521;53.584;9.938;2023-04-15T13:30:26;14.33;;;11.90;;
3022;SDS011;1521;53.584;9.938;2023-04-15T13:32:52;14.77;;;10.93;;
3022;SDS011;1521;53.584;9.938;2023-04-15T13:35:18;16.90;;;12.43;;
3022;SDS011;1521;53.584;9.938;2023-04-15T13:37:44;12.67;;;11.27;;
3022;SDS011;1521;53.584;9.938;2023-04-15T13:40:10;16.80;;;12.40;;
3022;SDS011;1521;53.584;9.938;2023-04-15T13:42:36;15.43;;;13.00;;
3022;SDS011;1521;53.584;9.938;2023-04-15T13:45:02;15.80;;;12.50;;
3022;SDS011;1521;53.584;9.938;2023-04-15T13:47:27;14.77;;;11.90;;
3022;SDS011;1521;53.584;9.938;2023-04-15T13:49:53;14.33;;;11.53;;
3022;SDS011;1521;53.584;9.938;2023-04-15T13:52:20;13.60;;;11.70;;
3022;SDS011;1521;53.584;9.938;2023-04-15T13:54:46;14.03;;;11.93;;
3022;SDS011;1521;53.584;9.938;2023-04-15T13:57:12;14.80;;;11.30;;
3022;SDS011;1521;53.584;9.938;2023-04-15T13:59:38;13.07;;;10.53;;
3022;SDS011;1521;53.584;9.938;2023-04-15T14:02:03;13.27;;;11.23;;
3022;SDS011;1521;53.584;9.938;2023-04-15T14:04:30;14.40;;;10.67;;
3022;SDS011;1521;53.584;9.938;2023-04-15T14:06:55;14.30;;;10.07;;
3022;SDS011;1521;53.584;9.938;2023-04-15T14:09:21;11.70;;;10.50;;
3022;SDS011;1521;53.584;9.938;2023-04-15T14:11:48;12.33;;;10.40;;
3022;SDS011;1521;53.584;9.938;2023-04-15T14:14:14;15.93;;;11.40;;
3022;SDS011;1521;53.584;9.938;2023-04-15T14:16:40;11.03;;;9.53;;
3022;SDS011;1521;53.584;9.938;2023-04-15T14:19:06;16.97;;;10.17;;
3022;SDS011;1521;53.584;9.938;2023-04-15T14:21:31;15.10;;;10.80;;
3022;SDS011;1521;53.584;9.938;2023-04-15T14:23:57;11.97;;;10.27;;
3022;SDS011;1521;53.584;9.938;2023-04-15T14:26:23;13.20;;;11.20;;
3022;SDS011;1521;53.584;9.938;2023-04-15T14:28:49;15.60;;;10.83;;
3022;SDS011;1521;53.584;9.938;2023-04-15T14:31:14;14.77;;;10.50;;
3022;SDS011;1521;53.584;9.938;2023-04-15T14:33:40;11.70;;;9.90;;
3022;SDS011;1521;53.584;9.938;2023-04-15T14:36:06;12.80;;;10.80;;
3022;SDS011;1521;53.584;9.938;2023-04-15T14:38:33;12.93;;;10.90;;
3022;SDS011;1521;53.584;9.938;2023-04-15T14:41:03;14.67;;;11.27;;
3022;SDS011;1521;53.584;9.938;2023-04-15T14:43:30;13.77;;;10.93;;
3022;SDS011;1521;53.584;9.938;2023-04-15T14:45:55;12.10;;;10.53;;
3022;SDS011;1521;53.584;9.938;2023-04-15T14:48:21;11.93;;;10.60;;
3022;SDS011;1521;53.584;9.938;2023-04-15T14:50:47;12.07;;;10.37;;
3022;SDS011;1521;53.584;9.938;2023-04-15T14:53:12;12.70;;;10.47;;
3022;SDS011;1521;53.584;9.938;2023-04-15T14:55:38;14.83;;;10.37;;
3022;SDS011;1521;53.584;9.938;2023-04-15T14:58:04;11.90;;;9.40;;
3022;SDS011;1521;53.584;9.938;2023-04-15T15:00:32;10.70;;;9.60;;
3022;SDS011;1521;53.584;9.938;2023-04-15T15:02:57;12.90;;;9.67;;